createdAt,value
2023-02-13T00:01:36.588Z,96593.06
2023-02-13T00:04:05.972Z,96598.50
2023-02-13T00:06:35.576Z,96597.09
2023-02-13T00:09:07.282Z,96604.94
2023-02-13T00:11:35.938Z,96603.44
2023-02-13T00:14:04.564Z,96610.28
2023-02-13T00:16:33.145Z,96612.91
2023-02-13T00:19:01.937Z,96613.59
2023-02-13T00:21:30.628Z,96612.78
2023-02-13T00:23:59.111Z,96611.13
2023-02-13T00:26:29.321Z,96611.31
2023-02-13T00:28:59.179Z,96606.75
2023-02-13T00:31:29.833Z,96615.00
2023-02-13T00:33:59.065Z,96617.28
2023-02-13T00:36:29.127Z,96617.56
2023-02-13T00:38:57.691Z,96615.78
2023-02-13T00:41:27.434Z,96611.34
2023-02-13T00:43:58.136Z,96609.56
2023-02-13T00:46:26.837Z,96615.69
2023-02-13T00:48:55.483Z,96623.41
2023-02-13T00:51:24.229Z,96619.03
2023-02-13T00:53:53.560Z,96623.41
2023-02-13T00:56:22.236Z,96617.38
2023-02-13T00:58:51.695Z,96625.63
2023-02-13T01:01:21.803Z,96629.03
2023-02-13T01:03:50.516Z,96633.19
2023-02-13T01:06:19.192Z,96631.16
2023-02-13T01:08:49.624Z,96620.31
2023-02-13T01:11:20.154Z,96633.09
2023-02-13T01:13:48.767Z,96634.16
2023-02-13T01:16:18.369Z,96636.50
2023-02-13T01:18:50.440Z,96635.50
2023-02-13T01:21:19.965Z,96628.81
2023-02-13T01:23:48.693Z,96634.16
2023-02-13T01:26:20.271Z,96625.66
2023-02-13T01:28:53.650Z,96626.16
2023-02-13T01:31:22.549Z,96627.22
2023-02-13T01:33:53.789Z,96620.78
2023-02-13T01:36:24.242Z,96617.63
2023-02-13T01:38:54.661Z,96619.97
2023-02-13T01:41:23.561Z,96624.09
2023-02-13T01:43:54.325Z,96623.63
2023-02-13T01:46:26.249Z,96629.97
2023-02-13T01:48:58.903Z,96632.94
2023-02-13T01:51:36.784Z,96645.38
2023-02-13T01:54:09.729Z,96641.25
2023-02-13T01:56:42.716Z,96632.03
2023-02-13T01:59:12.882Z,96635.00
2023-02-13T02:01:41.756Z,96634.00
2023-02-13T02:04:13.894Z,96637.50
2023-02-13T02:06:45.662Z,96632.34
2023-02-13T02:09:25.437Z,96633.06
2023-02-13T02:11:57.069Z,96632.53
2023-02-13T02:14:27.153Z,96636.44
2023-02-13T02:16:58.850Z,96631.59
2023-02-13T02:19:37.090Z,96631.47
2023-02-13T02:22:28.837Z,96632.09
2023-02-13T02:25:15.974Z,96638.69
2023-02-13T02:28:06.343Z,96639.22
2023-02-13T02:30:56.463Z,96646.31
2023-02-13T02:33:32.870Z,96649.63
2023-02-13T02:36:10.857Z,96662.50
2023-02-13T02:38:48.790Z,96653.53
2023-02-13T02:41:40.385Z,96659.69
2023-02-13T02:44:18.277Z,96659.03
2023-02-13T02:47:07.206Z,96662.56
2023-02-13T02:49:57.086Z,96660.97
2023-02-13T02:52:28.055Z,96657.72
2023-02-13T02:55:08.373Z,96661.31
2023-02-13T02:58:09.849Z,96657.66
2023-02-13T03:01:00.543Z,96663.38
2023-02-13T03:03:48.106Z,96658.84
2023-02-13T03:06:23.540Z,96661.31
2023-02-13T03:09:12.411Z,96664.03
2023-02-13T03:12:00.510Z,96665.00
2023-02-13T03:14:29.949Z,96661.97
2023-02-13T03:17:17.808Z,96658.44
2023-02-13T03:20:15.531Z,96659.72
2023-02-13T03:22:53.802Z,96669.28
2023-02-13T03:25:34.575Z,96665.63
2023-02-13T03:28:25.849Z,96658.41
2023-02-13T03:31:00.092Z,96659.94
2023-02-13T03:33:37.321Z,96665.19
2023-02-13T03:36:26.782Z,96647.94
2023-02-13T03:38:58.855Z,96652.41
2023-02-13T03:41:31.186Z,96658.75
2023-02-13T03:44:07.626Z,96669.09
2023-02-13T03:46:37.857Z,96665.06
2023-02-13T03:49:25.894Z,96662.34
2023-02-13T03:51:57.704Z,96660.50
2023-02-13T03:54:47.111Z,96657.13
2023-02-13T03:57:36.965Z,96667.06
2023-02-13T04:00:07.723Z,96663.38
2023-02-13T04:02:44.273Z,96666.91
2023-02-13T04:05:18.157Z,96672.50
2023-02-13T04:07:47.334Z,96677.09
2023-02-13T04:10:18.728Z,96678.44
2023-02-13T04:12:52.115Z,96685.75
2023-02-13T04:15:22.507Z,96679.13
2023-02-13T04:17:53.959Z,96679.81
2023-02-13T04:20:22.800Z,96682.91
2023-02-13T04:22:52.019Z,96678.66
2023-02-13T04:25:22.336Z,96673.88
2023-02-13T04:27:51.064Z,96667.44
2023-02-13T04:30:19.693Z,96672.03
2023-02-13T04:32:48.441Z,96667.22
2023-02-13T04:35:16.977Z,96664.22
2023-02-13T04:37:45.675Z,96666.63
2023-02-13T04:40:14.484Z,96671.09
2023-02-13T04:42:45.698Z,96665.06
2023-02-13T04:45:14.421Z,96662.69
2023-02-13T04:47:42.981Z,96662.13
2023-02-13T04:50:12.548Z,96660.25
2023-02-13T04:52:41.774Z,96663.41
2023-02-13T04:55:11.429Z,96665.56
2023-02-13T04:57:41.186Z,96673.22
2023-02-13T05:00:12.197Z,96680.53
2023-02-13T05:02:40.829Z,96683.13
2023-02-13T05:05:10.284Z,96674.63
2023-02-13T05:07:39.411Z,96688.94
2023-02-13T05:10:08.564Z,96679.81
2023-02-13T05:12:37.781Z,96679.09
2023-02-13T05:15:07.293Z,96690.69
2023-02-13T05:17:37.314Z,96696.44
2023-02-13T05:20:06.168Z,96693.81
2023-02-13T05:22:52.189Z,96696.44
2023-02-13T05:25:20.951Z,96705.34
2023-02-13T05:27:49.494Z,96697.97
2023-02-13T05:30:18.207Z,96697.50
2023-02-13T05:32:48.162Z,96696.56
2023-02-13T05:35:16.839Z,96690.38
2023-02-13T05:37:45.503Z,96697.50
2023-02-13T05:40:15.531Z,96701.97
2023-02-13T05:42:45.215Z,96704.00
2023-02-13T05:45:13.781Z,96702.94
2023-02-13T05:47:42.343Z,96712.84
2023-02-13T05:50:12.609Z,96707.56
2023-02-13T05:52:41.303Z,96707.22
2023-02-13T05:55:10.031Z,96709.09
2023-02-13T05:57:38.753Z,96713.38
2023-02-13T06:00:08.167Z,96713.97
2023-02-13T06:02:37.386Z,96716.09
2023-02-13T06:05:06.424Z,96714.81
2023-02-13T06:07:37.357Z,96717.25
2023-02-13T06:10:06.552Z,96721.50
2023-02-13T06:12:35.295Z,96724.09
2023-02-13T06:15:04.467Z,96727.28
2023-02-13T06:17:33.068Z,96719.03
2023-02-13T06:20:01.637Z,96723.72
2023-02-13T06:22:31.401Z,96720.78
2023-02-13T06:25:01.552Z,96723.09
2023-02-13T06:27:31.360Z,96730.50
2023-02-13T06:30:00.071Z,96728.84
2023-02-13T06:32:28.758Z,96737.22
2023-02-13T06:34:58.714Z,96730.25
2023-02-13T06:37:27.368Z,96731.22
2023-02-13T06:39:56.078Z,96736.13
2023-02-13T06:42:26.775Z,96728.44
2023-02-13T06:44:56.188Z,96740.19
2023-02-13T06:47:25.000Z,96736.94
2023-02-13T06:49:53.819Z,96745.13
2023-02-13T06:52:22.422Z,96739.84
2023-02-13T06:54:51.085Z,96739.72
2023-02-13T06:57:20.378Z,96748.38
2023-02-13T06:59:50.389Z,96753.22
2023-02-13T07:02:19.131Z,96744.94
2023-02-13T07:04:47.668Z,96741.03
2023-02-13T07:07:17.012Z,96751.56
2023-02-13T07:09:45.863Z,96750.94
2023-02-13T07:12:14.573Z,96744.06
2023-02-13T07:14:43.154Z,96748.31
2023-02-13T07:17:13.243Z,96749.66
2023-02-13T07:19:42.399Z,96742.72
2023-02-13T07:22:11.007Z,96749.22
2023-02-13T07:24:40.477Z,96750.31
2023-02-13T07:27:09.412Z,96748.91
2023-02-13T07:29:38.752Z,96742.09
2023-02-13T07:32:09.368Z,96737.06
2023-02-13T07:34:44.390Z,96733.81
2023-02-13T07:37:17.959Z,96740.56
2023-02-13T07:39:46.485Z,96746.03
2023-02-13T07:42:15.108Z,96741.16
2023-02-13T07:44:43.681Z,96753.44
2023-02-13T07:47:12.371Z,96750.44
2023-02-13T07:49:43.008Z,96753.06
2023-02-13T07:52:12.376Z,96755.53
2023-02-13T07:54:47.868Z,96753.34
2023-02-13T07:57:16.843Z,96751.97
2023-02-13T07:59:45.481Z,96751.69
2023-02-13T08:02:14.857Z,96755.13
2023-02-13T08:04:46.759Z,96759.25
2023-02-13T08:07:15.758Z,96751.69
2023-02-13T08:10:03.000Z,96758.56
2023-02-13T08:12:33.182Z,96761.47
2023-02-13T08:15:01.887Z,96759.97
2023-02-13T08:17:31.904Z,96756.50
2023-02-13T08:20:03.400Z,96751.72
2023-02-13T08:22:32.210Z,96756.78
2023-02-13T08:25:00.970Z,96744.25
2023-02-13T08:27:31.434Z,96751.81
2023-02-13T08:30:00.629Z,96748.56
2023-02-13T08:32:29.397Z,96749.72
2023-02-13T08:34:59.855Z,96748.25
2023-02-13T08:37:30.613Z,96751.84
2023-02-13T08:39:59.373Z,96749.50
2023-02-13T08:42:28.020Z,96749.38
2023-02-13T08:44:58.182Z,96752.69
2023-02-13T08:47:28.076Z,96743.78
2023-02-13T08:49:56.754Z,96744.88
2023-02-13T08:52:26.038Z,96746.44
2023-02-13T08:54:56.074Z,96746.34
2023-02-13T08:57:24.916Z,96754.31
2023-02-13T08:59:53.438Z,96755.88
2023-02-13T09:02:22.035Z,96751.91
2023-02-13T09:04:51.350Z,96755.44
2023-02-13T09:07:19.998Z,96763.78
2023-02-13T09:09:48.853Z,96758.31
2023-02-13T09:12:18.911Z,96755.53
2023-02-13T09:14:49.061Z,96753.41
2023-02-13T09:17:19.206Z,96763.03
2023-02-13T09:19:48.001Z,96760.13
2023-02-13T09:22:17.544Z,96757.16
2023-02-13T09:24:46.331Z,96763.09
2023-02-13T09:27:15.283Z,96755.69
2023-02-13T09:29:45.557Z,96757.16
2023-02-13T09:32:14.223Z,96755.69
2023-02-13T09:34:42.831Z,96745.38
2023-02-13T09:37:12.867Z,96744.06
2023-02-13T09:39:41.763Z,96746.56
2023-02-13T09:42:17.107Z,96748.66
2023-02-13T09:44:47.950Z,96742.84
2023-02-13T09:47:19.241Z,96738.25
2023-02-13T09:49:50.154Z,96729.31
2023-02-13T09:52:18.967Z,96723.53
2023-02-13T09:54:47.495Z,96722.53
2023-02-13T09:57:18.393Z,96709.69
2023-02-13T09:59:52.191Z,96700.53
2023-02-13T10:02:32.946Z,96696.25
2023-02-13T10:05:06.453Z,96692.78
2023-02-13T10:07:39.775Z,96694.00
2023-02-13T10:10:14.312Z,96690.78
2023-02-13T10:12:57.896Z,96690.16
2023-02-13T10:15:33.059Z,96688.22
2023-02-13T10:18:05.175Z,96688.13
2023-02-13T10:20:36.009Z,96674.94
2023-02-13T10:23:19.331Z,96671.31
2023-02-13T10:25:50.530Z,96672.00
2023-02-13T10:28:20.765Z,96666.78
2023-02-13T10:30:54.505Z,96668.31
2023-02-13T10:33:27.510Z,96666.88
2023-02-13T10:36:00.834Z,96657.69
2023-02-13T10:38:32.058Z,96665.56
2023-02-13T10:41:20.409Z,96661.94
2023-02-13T10:43:54.765Z,96655.31
2023-02-13T10:46:28.876Z,96645.66
2023-02-13T10:49:07.830Z,96644.19
2023-02-13T10:51:42.064Z,96640.63
2023-02-13T10:54:35.428Z,96632.75
2023-02-13T10:57:10.670Z,96627.72
2023-02-13T10:59:45.478Z,96617.75
2023-02-13T11:02:22.867Z,96615.97
2023-02-13T11:04:52.205Z,96614.59
2023-02-13T11:07:23.255Z,96616.34
2023-02-13T11:09:56.245Z,96616.06
2023-02-13T11:12:26.105Z,96623.09
2023-02-13T11:14:58.840Z,96610.34
2023-02-13T11:17:31.428Z,96605.16
2023-02-13T11:20:01.529Z,96595.25
2023-02-13T11:22:33.884Z,96594.25
2023-02-13T11:25:04.574Z,96585.47
2023-02-13T11:27:34.599Z,96580.78
2023-02-13T11:30:04.393Z,96571.78
2023-02-13T11:32:35.175Z,96576.38
2023-02-13T11:35:20.042Z,96566.41
2023-02-13T11:37:48.930Z,96564.16
2023-02-13T11:40:31.924Z,96557.25
2023-02-13T11:43:00.726Z,96556.50
2023-02-13T11:45:29.604Z,96544.47
2023-02-13T11:48:01.200Z,96554.25
2023-02-13T11:50:31.690Z,96544.94
2023-02-13T11:53:01.650Z,96542.47
2023-02-13T11:55:32.348Z,96544.09
2023-02-13T11:58:02.434Z,96535.41
2023-02-13T12:00:40.680Z,96538.81
2023-02-13T12:03:30.446Z,96540.34
2023-02-13T12:06:02.956Z,96534.19
2023-02-13T12:08:32.866Z,96527.53
2023-02-13T12:11:04.130Z,96529.25
2023-02-13T12:13:34.523Z,96528.25
2023-02-13T12:16:06.870Z,96528.91
2023-02-13T12:18:39.161Z,96522.59
2023-02-13T12:21:17.986Z,96514.41
2023-02-13T12:23:50.573Z,96512.63
2023-02-13T12:26:24.363Z,96506.69
2023-02-13T12:29:04.154Z,96498.38
2023-02-13T12:31:40.251Z,96505.03
2023-02-13T12:34:37.690Z,96498.56
2023-02-13T12:37:14.734Z,96498.84
2023-02-13T12:39:51.485Z,96496.38
2023-02-13T12:42:31.259Z,96495.50
2023-02-13T12:45:04.450Z,96479.16
2023-02-13T12:47:36.629Z,96481.75
2023-02-13T12:50:24.772Z,96470.50
2023-02-13T12:53:10.826Z,96479.34
2023-02-13T12:55:47.450Z,96473.03
2023-02-13T12:58:34.530Z,96468.25
2023-02-13T13:01:08.542Z,96478.25
2023-02-13T13:03:41.434Z,96467.50
2023-02-13T13:06:28.545Z,96471.59
2023-02-13T13:09:05.874Z,96465.72
2023-02-13T13:11:49.276Z,96456.88
2023-02-13T13:14:22.818Z,96456.88
2023-02-13T13:16:56.613Z,96453.97
2023-02-13T13:19:34.727Z,96440.63
2023-02-13T13:22:08.301Z,96443.69
2023-02-13T13:24:43.992Z,96442.25
2023-02-13T13:27:21.372Z,96445.94
2023-02-13T13:29:54.267Z,96427.03
2023-02-13T13:32:24.381Z,96440.63
2023-02-13T13:34:53.381Z,96440.84
2023-02-13T13:37:28.333Z,96435.91
2023-02-13T13:40:00.257Z,96439.53
2023-02-13T13:42:37.892Z,96439.78
2023-02-13T13:45:13.014Z,96438.97
2023-02-13T13:47:47.833Z,96431.63
2023-02-13T13:50:21.772Z,96433.53
2023-02-13T13:53:15.041Z,96423.78
2023-02-13T13:56:02.550Z,96426.59
2023-02-13T13:58:35.882Z,96429.25
2023-02-13T14:01:24.840Z,96434.78
2023-02-13T14:03:55.203Z,96428.03
2023-02-13T14:06:25.285Z,96429.53
2023-02-13T14:09:00.248Z,96431.88
2023-02-13T14:11:46.544Z,96418.34
2023-02-13T14:14:34.270Z,96420.25
2023-02-13T14:17:03.657Z,96421.34
2023-02-13T14:19:37.958Z,96413.84
2023-02-13T14:22:25.778Z,96412.50
2023-02-13T14:24:57.141Z,96420.22
2023-02-13T14:27:27.020Z,96420.69
2023-02-13T14:29:56.356Z,96410.44
2023-02-13T14:32:29.353Z,96417.59
2023-02-13T14:34:59.442Z,96419.44
2023-02-13T14:37:37.011Z,96422.34
2023-02-13T14:40:17.656Z,96416.81
2023-02-13T14:42:48.238Z,96418.34
2023-02-13T14:45:19.603Z,96418.16
2023-02-13T14:47:53.687Z,96418.16
2023-02-13T14:50:25.578Z,96415.88
2023-02-13T14:52:55.385Z,96411.31
2023-02-13T14:55:33.420Z,96417.78
2023-02-13T14:58:06.712Z,96417.78
2023-02-13T15:00:41.152Z,96412.03
2023-02-13T15:03:25.365Z,96411.13
2023-02-13T15:05:55.527Z,96412.16
2023-02-13T15:08:26.228Z,96416.53
2023-02-13T15:10:57.621Z,96418.38
2023-02-13T15:13:29.460Z,96410.19
2023-02-13T15:16:01.072Z,96416.66
2023-02-13T15:18:32.154Z,96407.41
2023-02-13T15:21:02.711Z,96408.44
2023-02-13T15:23:32.817Z,96406.28
2023-02-13T15:26:04.013Z,96401.38
2023-02-13T15:28:33.390Z,96409.31
2023-02-13T15:31:03.673Z,96402.72
2023-02-13T15:33:38.058Z,96405.72
2023-02-13T15:36:08.044Z,96412.16
2023-02-13T15:38:38.255Z,96414.78
2023-02-13T15:41:12.207Z,96409.69
2023-02-13T15:43:42.102Z,96405.31
2023-02-13T15:46:22.355Z,96410.09
2023-02-13T15:48:51.197Z,96417.31
2023-02-13T15:51:20.919Z,96417.94
2023-02-13T15:53:53.774Z,96420.59
2023-02-13T15:56:24.517Z,96417.78
2023-02-13T15:58:54.814Z,96419.44
2023-02-13T16:01:23.519Z,96415.31
2023-02-13T16:03:54.937Z,96427.13
2023-02-13T16:06:25.921Z,96425.97
2023-02-13T16:08:55.436Z,96433.69
2023-02-13T16:11:30.004Z,96432.19
2023-02-13T16:14:04.473Z,96426.44
2023-02-13T16:16:36.990Z,96437.59
2023-02-13T16:19:06.264Z,96443.75
2023-02-13T16:21:36.203Z,96441.00
2023-02-13T16:24:06.092Z,96441.13
2023-02-13T16:26:39.426Z,96444.84
2023-02-13T16:29:10.994Z,96451.59
2023-02-13T16:31:41.184Z,96442.75
2023-02-13T16:34:16.779Z,96447.09
2023-02-13T16:36:45.441Z,96443.66
2023-02-13T16:39:20.134Z,96446.81
2023-02-13T16:41:50.337Z,96443.88
2023-02-13T16:44:26.366Z,96447.47
2023-02-13T16:46:59.492Z,96439.78
2023-02-13T16:49:29.556Z,96430.91
2023-02-13T16:52:00.143Z,96427.59
2023-02-13T16:54:33.634Z,96436.59
2023-02-13T16:57:05.009Z,96443.84
2023-02-13T16:59:40.107Z,96447.94
2023-02-13T17:02:15.974Z,96448.88
2023-02-13T17:04:45.325Z,96445.09
2023-02-13T17:07:14.761Z,96445.44
2023-02-13T17:09:43.601Z,96442.28
2023-02-13T17:12:18.318Z,96439.06
2023-02-13T17:14:48.416Z,96440.16
2023-02-13T17:17:18.445Z,96439.50
2023-02-13T17:19:47.234Z,96433.28
2023-02-13T17:22:20.091Z,96441.75
2023-02-13T17:24:49.763Z,96442.09
2023-02-13T17:27:22.725Z,96442.63
2023-02-13T17:29:51.848Z,96443.63
2023-02-13T17:32:22.844Z,96446.25
2023-02-13T17:34:52.047Z,96435.25
2023-02-13T17:37:22.382Z,96442.41
2023-02-13T17:39:51.693Z,96435.81
2023-02-13T17:42:23.707Z,96437.78
2023-02-13T17:44:53.024Z,96441.41
2023-02-13T17:47:21.922Z,96429.25
2023-02-13T17:49:55.158Z,96432.47
2023-02-13T17:52:27.260Z,96429.44
2023-02-13T17:54:56.701Z,96427.88
2023-02-13T17:57:26.845Z,96428.53
2023-02-13T17:59:57.158Z,96424.09
2023-02-13T18:02:28.100Z,96420.91
2023-02-13T18:04:56.742Z,96413.63
2023-02-13T18:07:26.087Z,96408.19
2023-02-13T18:09:54.882Z,96408.66
2023-02-13T18:12:25.976Z,96412.84
2023-02-13T18:14:56.235Z,96415.75
2023-02-13T18:17:24.871Z,96417.84
2023-02-13T18:19:53.596Z,96415.84
2023-02-13T18:22:22.608Z,96409.72
2023-02-13T18:24:51.384Z,96412.84
2023-02-13T18:27:20.396Z,96411.88
2023-02-13T18:29:49.529Z,96416.28
2023-02-13T18:32:19.848Z,96413.00
2023-02-13T18:34:48.720Z,96417.56
2023-02-13T18:37:17.455Z,96417.41
2023-02-13T18:39:46.315Z,96412.94
2023-02-13T18:42:15.035Z,96406.78
2023-02-13T18:44:45.462Z,96407.63
2023-02-13T18:47:14.219Z,96406.22
2023-02-13T18:49:46.262Z,96411.06
2023-02-13T18:52:15.518Z,96406.81
2023-02-13T18:54:44.087Z,96408.75
2023-02-13T18:57:12.727Z,96410.59
2023-02-13T18:59:42.091Z,96411.91
2023-02-13T19:02:12.084Z,96402.91
2023-02-13T19:04:41.061Z,96405.38
2023-02-13T19:07:11.306Z,96403.13
2023-02-13T19:09:41.186Z,96414.06
2023-02-13T19:12:09.976Z,96402.84
2023-02-13T19:14:38.692Z,96404.25
2023-02-13T19:17:08.776Z,96402.31
2023-02-13T19:19:37.541Z,96401.63
2023-02-13T19:22:06.328Z,96409.31
2023-02-13T19:24:37.843Z,96406.84
2023-02-13T19:27:07.152Z,96403.81
2023-02-13T19:29:35.747Z,96407.09
2023-02-13T19:32:05.208Z,96395.63
2023-02-13T19:34:34.987Z,96403.75
2023-02-13T19:37:03.828Z,96398.59
2023-02-13T19:39:33.209Z,96401.41
2023-02-13T19:42:03.423Z,96394.94
2023-02-13T19:44:32.820Z,96397.84
2023-02-13T19:47:01.696Z,96398.59
2023-02-13T19:49:30.310Z,96395.38
2023-02-13T19:52:02.380Z,96392.47
2023-02-13T19:54:31.270Z,96390.97
2023-02-13T19:57:01.942Z,96388.13
2023-02-13T19:59:32.804Z,96383.28
2023-02-13T20:02:01.699Z,96387.16
2023-02-13T20:04:37.039Z,96383.72
2023-02-13T20:07:06.296Z,96381.25
2023-02-13T20:09:35.552Z,96391.03
2023-02-13T20:12:04.457Z,96390.91
2023-02-13T20:14:35.369Z,96400.47
2023-02-13T20:17:05.244Z,96395.97
2023-02-13T20:19:33.990Z,96395.69
2023-02-13T20:22:02.744Z,96394.75
2023-02-13T20:24:33.289Z,96392.47
2023-02-13T20:27:02.440Z,96393.94
2023-02-13T20:29:31.012Z,96388.91
2023-02-13T20:32:01.284Z,96390.28
2023-02-13T20:34:37.637Z,96385.47
2023-02-13T20:37:15.502Z,96392.63
2023-02-13T20:39:44.237Z,96386.06
2023-02-13T20:42:12.918Z,96379.34
2023-02-13T20:44:41.496Z,96377.00
2023-02-13T20:47:12.162Z,96380.31
2023-02-13T20:49:40.871Z,96389.09
2023-02-13T20:52:10.134Z,96382.81
2023-02-13T20:54:39.062Z,96382.00
2023-02-13T20:57:07.869Z,96374.75
2023-02-13T20:59:37.212Z,96373.25
2023-02-13T21:02:07.075Z,96375.34
2023-02-13T21:04:37.835Z,96364.06
2023-02-13T21:07:09.493Z,96363.47
2023-02-13T21:09:38.609Z,96364.88
2023-02-13T21:12:07.472Z,96363.38
2023-02-13T21:14:36.882Z,96364.19
2023-02-13T21:17:05.572Z,96357.78
2023-02-13T21:19:34.265Z,96366.03
2023-02-13T21:22:12.596Z,96363.72
2023-02-13T21:24:41.836Z,96354.38
2023-02-13T21:27:11.122Z,96362.38
2023-02-13T21:29:39.921Z,96357.44
2023-02-13T21:32:09.359Z,96365.53
2023-02-13T21:34:38.073Z,96353.09
2023-02-13T21:37:08.180Z,96350.34
2023-02-13T21:39:37.501Z,96354.63
2023-02-13T21:42:06.703Z,96347.91
2023-02-13T21:44:36.057Z,96350.81
2023-02-13T21:47:07.114Z,96345.75
2023-02-13T21:49:36.636Z,96346.16
2023-02-13T21:52:05.823Z,96341.06
2023-02-13T21:54:35.908Z,96351.00
2023-02-13T21:57:04.710Z,96342.88
2023-02-13T21:59:33.286Z,96346.75
2023-02-13T22:02:02.939Z,96331.63
2023-02-13T22:04:35.257Z,96327.94
2023-02-13T22:07:03.993Z,96324.91
2023-02-13T22:09:32.544Z,96329.41
2023-02-13T22:12:03.830Z,96318.84
2023-02-13T22:14:32.563Z,96316.22
2023-02-13T22:17:01.133Z,96316.22
2023-02-13T22:19:30.393Z,96307.59
2023-02-13T22:21:58.935Z,96305.13
2023-02-13T22:24:27.982Z,96301.44
2023-02-13T22:26:56.526Z,96297.28
2023-02-13T22:29:27.214Z,96303.75
2023-02-13T22:31:57.741Z,96303.59
2023-02-13T22:34:26.634Z,96306.06
2023-02-13T22:36:55.871Z,96304.53
2023-02-13T22:39:24.545Z,96300.97
2023-02-13T22:41:56.762Z,96298.47
2023-02-13T22:44:26.959Z,96298.03
2023-02-13T22:46:56.166Z,96298.28
2023-02-13T22:49:24.692Z,96297.59
2023-02-13T22:51:54.012Z,96299.94
2023-02-13T22:54:22.643Z,96302.81
2023-02-13T22:56:51.811Z,96306.75
2023-02-13T22:59:20.430Z,96303.06
2023-02-13T23:01:50.638Z,96301.13
2023-02-13T23:04:22.050Z,96297.28
2023-02-13T23:06:51.328Z,96300.03
2023-02-13T23:09:19.848Z,96293.44
2023-02-13T23:12:05.798Z,96290.47
2023-02-13T23:14:34.410Z,96297.84
2023-02-13T23:17:22.030Z,96288.75
2023-02-13T23:19:50.634Z,96292.91
2023-02-13T23:22:19.102Z,96300.16
2023-02-13T23:24:47.795Z,96294.03
2023-02-13T23:27:16.463Z,96296.78
2023-02-13T23:29:45.106Z,96294.59
2023-02-13T23:32:16.373Z,96300.34
2023-02-13T23:34:45.518Z,96292.66
2023-02-13T23:37:14.061Z,96282.47
2023-02-13T23:39:42.641Z,96295.09
2023-02-13T23:42:11.329Z,96292.72
2023-02-13T23:44:39.829Z,96288.13
2023-02-13T23:47:08.440Z,96292.75
2023-02-13T23:49:38.428Z,96288.50
2023-02-13T23:52:07.048Z,96281.00
2023-02-13T23:54:35.744Z,96269.78
2023-02-13T23:57:04.303Z,96276.63
2023-02-13T23:59:33.669Z,96271.94
